createdAt,value
2023-01-13T00:01:19.012Z,6.20
2023-01-13T00:03:46.280Z,6.20
2023-01-13T00:06:19.861Z,6.20
2023-01-13T00:08:50.824Z,6.20
2023-01-13T00:11:19.084Z,6.40
2023-01-13T00:13:46.250Z,6.20
2023-01-13T00:16:16.181Z,6.20
2023-01-13T00:18:43.614Z,6.10
2023-01-13T00:21:24.746Z,6.20
2023-01-13T00:23:54.153Z,6.30
2023-01-13T00:26:24.102Z,6.20
2023-01-13T00:28:55.934Z,6.10
2023-01-13T00:31:22.933Z,6.10
2023-01-13T00:33:51.175Z,6.10
2023-01-13T00:36:20.886Z,6.50
2023-01-13T00:38:48.136Z,6.10
2023-01-13T00:41:20.291Z,6.10
2023-01-13T00:43:48.084Z,6.10
2023-01-13T00:46:17.542Z,6.10
2023-01-13T00:48:44.967Z,6.00
2023-01-13T00:51:15.137Z,6.10
2023-01-13T00:53:45.259Z,6.00
2023-01-13T00:56:18.064Z,6.00
2023-01-13T00:58:46.609Z,6.00
2023-01-13T01:01:20.247Z,5.70
2023-01-13T01:03:52.222Z,6.00
2023-01-13T01:06:22.551Z,5.80
2023-01-13T01:08:49.886Z,6.00
2023-01-13T01:11:19.447Z,6.10
2023-01-13T01:13:47.422Z,6.00
2023-01-13T01:16:16.077Z,6.00
2023-01-13T01:18:45.721Z,6.00
2023-01-13T01:21:13.423Z,6.00
2023-01-13T01:23:41.095Z,6.00
2023-01-13T01:26:12.771Z,6.00
2023-01-13T01:28:40.159Z,6.00
2023-01-13T01:31:14.276Z,6.00
2023-01-13T01:33:41.892Z,6.20
2023-01-13T01:36:11.166Z,6.00
2023-01-13T01:38:38.427Z,6.00
2023-01-13T01:41:05.799Z,6.00
2023-01-13T01:44:02.723Z,6.10
2023-01-13T01:46:35.712Z,6.00
2023-01-13T01:49:14.591Z,6.10
2023-01-13T01:51:57.715Z,6.00
2023-01-13T01:54:38.623Z,6.00
2023-01-13T01:57:08.501Z,6.10
2023-01-13T01:59:37.275Z,6.10
2023-01-13T02:02:06.953Z,6.10
2023-01-13T02:04:38.940Z,6.10
2023-01-13T02:07:06.562Z,6.20
2023-01-13T02:09:35.005Z,6.20
2023-01-13T02:12:20.393Z,6.10
2023-01-13T02:14:47.369Z,6.10
2023-01-13T02:20:43.567Z,6.20
2023-01-13T02:24:00.054Z,6.20
2023-01-13T02:26:45.640Z,6.20
2023-01-13T02:29:52.172Z,6.20
2023-01-13T02:32:40.172Z,6.20
2023-01-13T02:35:15.571Z,6.20
2023-01-13T02:37:44.172Z,6.10
2023-01-13T02:40:59.139Z,6.10
2023-01-13T02:43:54.634Z,5.80
2023-01-13T02:46:37.834Z,6.10
2023-01-13T02:49:10.290Z,6.10
2023-01-13T02:51:39.608Z,6.30
2023-01-13T02:54:12.828Z,6.10
2023-01-13T02:56:46.296Z,6.10
2023-01-13T02:59:14.232Z,6.50
2023-01-13T03:01:43.033Z,6.40
2023-01-13T03:04:15.613Z,6.10
2023-01-13T03:06:54.524Z,6.20
2023-01-13T03:09:33.072Z,6.10
2023-01-13T03:12:27.456Z,6.10
2023-01-13T03:15:10.281Z,6.10
2023-01-13T03:18:06.234Z,6.00
2023-01-13T03:20:40.611Z,6.30
2023-01-13T03:23:41.928Z,6.10
2023-01-13T03:26:33.601Z,6.20
2023-01-13T03:29:06.648Z,6.20
2023-01-13T03:31:38.020Z,6.20
2023-01-13T03:34:13.834Z,6.20
2023-01-13T03:36:43.669Z,6.20
2023-01-13T03:39:16.704Z,6.20
2023-01-13T03:41:53.145Z,6.20
2023-01-13T03:44:32.832Z,6.20
2023-01-13T03:47:18.654Z,6.20
2023-01-13T03:50:01.839Z,6.10
2023-01-13T03:52:33.230Z,6.10
2023-01-13T03:55:11.328Z,6.20
2023-01-13T03:58:14.457Z,6.10
2023-01-13T04:00:47.824Z,6.10
2023-01-13T04:03:24.503Z,6.10
2023-01-13T04:05:56.454Z,6.10
2023-01-13T04:08:28.670Z,6.10
2023-01-13T04:11:07.352Z,6.00
2023-01-13T04:13:39.280Z,6.00
2023-01-13T04:16:08.097Z,6.50
2023-01-13T04:18:37.980Z,6.00
2023-01-13T04:21:05.928Z,6.00
2023-01-13T04:23:32.866Z,6.00
2023-01-13T04:25:59.971Z,5.90
2023-01-13T04:28:27.481Z,6.10
2023-01-13T04:30:54.519Z,5.90
2023-01-13T04:33:21.446Z,6.00
2023-01-13T04:35:48.863Z,5.90
2023-01-13T04:38:18.785Z,5.90
2023-01-13T04:40:45.960Z,5.90
2023-01-13T04:43:13.073Z,6.00
2023-01-13T04:45:39.944Z,5.90
2023-01-13T04:48:06.986Z,6.00
2023-01-13T04:50:34.243Z,5.90
2023-01-13T04:53:01.323Z,6.00
2023-01-13T04:55:28.668Z,6.20
2023-01-13T04:57:55.858Z,5.90
2023-01-13T05:00:23.691Z,6.00
2023-01-13T05:02:51.905Z,6.00
2023-01-13T05:05:19.096Z,6.00
2023-01-13T05:07:46.360Z,6.10
2023-01-13T05:10:13.391Z,6.00
2023-01-13T05:12:59.312Z,5.90
2023-01-13T05:15:44.714Z,6.00
2023-01-13T05:18:12.357Z,5.90
2023-01-13T05:20:39.394Z,5.90
2023-01-13T05:23:25.338Z,6.00
2023-01-13T05:25:52.260Z,6.00
2023-01-13T05:28:19.136Z,6.00
2023-01-13T05:30:49.154Z,6.10
2023-01-13T05:33:20.350Z,6.00
2023-01-13T05:35:48.475Z,6.00
2023-01-13T05:38:17.154Z,6.00
2023-01-13T05:41:03.006Z,6.20
2023-01-13T05:43:30.171Z,6.00
2023-01-13T05:46:01.542Z,6.00
2023-01-13T05:48:34.606Z,5.90
2023-01-13T05:51:03.228Z,5.90
2023-01-13T05:53:30.685Z,5.90
2023-01-13T05:55:58.219Z,5.90
2023-01-13T05:58:26.978Z,5.90
2023-01-13T06:00:58.876Z,6.00
2023-01-13T06:03:28.467Z,6.00
2023-01-13T06:06:02.280Z,5.80
2023-01-13T06:08:30.233Z,5.80
2023-01-13T06:10:57.394Z,5.80
2023-01-13T06:13:26.206Z,5.80
2023-01-13T06:15:59.272Z,5.90
2023-01-13T06:18:27.270Z,5.80
2023-01-13T06:20:54.200Z,5.80
2023-01-13T06:23:21.280Z,5.80
2023-01-13T06:25:58.767Z,5.70
2023-01-13T06:28:25.890Z,5.80
2023-01-13T06:30:57.275Z,5.70
2023-01-13T06:33:30.075Z,5.70
2023-01-13T06:36:02.633Z,5.70
2023-01-13T06:38:40.286Z,5.70
2023-01-13T06:41:08.898Z,5.80
2023-01-13T06:43:36.047Z,5.60
2023-01-13T06:46:03.630Z,5.60
2023-01-13T06:48:35.077Z,5.60
2023-01-13T06:51:03.275Z,5.40
2023-01-13T06:53:30.184Z,5.50
2023-01-13T06:56:41.711Z,5.60
2023-01-13T06:59:08.965Z,5.50
2023-01-13T07:01:36.007Z,5.60
2023-01-13T07:04:02.984Z,5.60
2023-01-13T07:06:29.830Z,5.60
2023-01-13T07:08:56.884Z,5.30
2023-01-13T07:11:25.433Z,5.70
2023-01-13T07:14:12.075Z,5.90
2023-01-13T07:16:42.049Z,5.60
2023-01-13T07:19:08.917Z,5.60
2023-01-13T07:21:35.997Z,5.60
2023-01-13T07:24:03.129Z,5.50
2023-01-13T07:26:30.061Z,5.20
2023-01-13T07:28:57.994Z,5.70
2023-01-13T07:31:26.718Z,5.60
2023-01-13T07:33:53.803Z,5.50
2023-01-13T07:36:20.731Z,5.60
2023-01-13T07:38:47.649Z,5.70
2023-01-13T07:41:33.924Z,5.70
2023-01-13T07:44:04.830Z,5.90
2023-01-13T07:46:32.658Z,5.90
2023-01-13T07:48:59.742Z,5.70
2023-01-13T07:51:26.703Z,5.90
2023-01-13T07:53:53.756Z,6.10
2023-01-13T07:56:20.733Z,6.10
2023-01-13T07:58:50.958Z,6.30
2023-01-13T08:01:21.838Z,6.30
2023-01-13T08:03:48.839Z,6.40
2023-01-13T08:06:19.265Z,6.40
2023-01-13T08:08:46.389Z,6.50
2023-01-13T08:11:13.477Z,6.80
2023-01-13T08:13:40.567Z,6.70
2023-01-13T08:16:12.951Z,6.60
2023-01-13T08:18:39.976Z,6.70
2023-01-13T08:21:16.022Z,6.70
2023-01-13T08:23:44.699Z,6.70
2023-01-13T08:26:17.143Z,6.80
2023-01-13T08:28:44.676Z,6.80
2023-01-13T08:31:14.264Z,6.80
2023-01-13T08:33:41.588Z,7.10
2023-01-13T08:36:11.148Z,6.80
2023-01-13T08:38:38.541Z,6.90
2023-01-13T08:41:13.758Z,7.00
2023-01-13T08:43:41.005Z,7.00
2023-01-13T08:46:08.071Z,7.00
2023-01-13T08:48:35.110Z,7.00
2023-01-13T08:51:07.885Z,7.20
2023-01-13T08:53:35.279Z,7.20
2023-01-13T08:56:02.268Z,7.50
2023-01-13T08:58:29.245Z,7.20
2023-01-13T09:00:56.352Z,7.30
2023-01-13T09:03:23.281Z,7.40
2023-01-13T09:05:50.223Z,7.40
2023-01-13T09:08:17.228Z,7.40
2023-01-13T09:10:44.097Z,7.40
2023-01-13T09:13:13.896Z,7.40
2023-01-13T09:15:43.841Z,7.50
2023-01-13T09:18:11.860Z,7.40
2023-01-13T09:20:39.571Z,7.50
2023-01-13T09:23:10.104Z,7.50
2023-01-13T09:25:38.102Z,7.40
2023-01-13T09:28:05.077Z,7.50
2023-01-13T09:30:32.101Z,7.50
2023-01-13T09:33:18.045Z,7.50
2023-01-13T09:35:45.213Z,7.50
2023-01-13T09:38:12.080Z,7.80
2023-01-13T09:40:41.508Z,7.60
2023-01-13T09:43:42.323Z,7.60
2023-01-13T09:46:38.526Z,7.70
2023-01-13T09:49:05.599Z,7.70
2023-01-13T09:51:50.026Z,7.80
2023-01-13T09:54:41.880Z,7.80
2023-01-13T09:57:14.233Z,7.90
2023-01-13T09:59:41.514Z,7.90
2023-01-13T10:02:39.615Z,7.90
2023-01-13T10:05:16.124Z,8.00
2023-01-13T10:08:12.046Z,7.90
2023-01-13T10:10:45.138Z,8.00
2023-01-13T10:13:19.951Z,8.00
2023-01-13T10:16:26.283Z,8.30
2023-01-13T10:19:11.309Z,8.10
2023-01-13T10:21:57.563Z,8.20
2023-01-13T10:24:42.295Z,8.20
2023-01-13T10:27:18.494Z,8.30
2023-01-13T10:29:45.453Z,8.30
2023-01-13T10:32:12.230Z,8.40
2023-01-13T10:35:00.348Z,8.40
2023-01-13T10:37:28.687Z,8.70
2023-01-13T10:39:57.611Z,8.60
2023-01-13T10:42:25.465Z,8.60
2023-01-13T10:45:00.123Z,8.60
2023-01-13T10:47:30.695Z,8.90
2023-01-13T10:50:09.352Z,8.80
2023-01-13T10:52:42.816Z,8.80
2023-01-13T10:55:27.820Z,8.90
2023-01-13T10:57:54.915Z,9.00
2023-01-13T11:00:29.467Z,9.00
2023-01-13T11:03:16.103Z,9.00
2023-01-13T11:05:59.472Z,9.10
2023-01-13T11:08:41.256Z,9.10
2023-01-13T11:11:25.062Z,9.20
2023-01-13T11:14:13.783Z,9.30
2023-01-13T11:16:52.804Z,9.20
2023-01-13T11:19:22.865Z,9.20
2023-01-13T11:22:21.903Z,9.20
2023-01-13T11:24:51.382Z,9.30
2023-01-13T11:27:22.129Z,9.30
2023-01-13T11:30:13.692Z,9.30
2023-01-13T11:33:22.926Z,9.30
2023-01-13T11:36:06.315Z,9.30
2023-01-13T11:38:33.531Z,9.30
2023-01-13T11:41:13.550Z,9.30
2023-01-13T11:44:05.221Z,9.40
2023-01-13T11:46:32.773Z,9.40
2023-01-13T11:49:00.819Z,9.40
2023-01-13T11:51:32.393Z,9.40
2023-01-13T11:54:05.111Z,9.40
2023-01-13T11:56:52.741Z,9.50
2023-01-13T11:59:49.671Z,9.40
2023-01-13T12:02:22.798Z,9.40
2023-01-13T12:05:28.055Z,9.40
2023-01-13T12:08:11.103Z,9.50
2023-01-13T12:10:54.152Z,9.40
2023-01-13T12:13:58.369Z,9.40
2023-01-13T12:16:30.578Z,9.40
2023-01-13T12:19:16.109Z,9.50
2023-01-13T12:22:10.838Z,9.50
2023-01-13T12:24:45.839Z,9.60
2023-01-13T12:27:43.724Z,9.50
2023-01-13T12:30:29.760Z,9.60
2023-01-13T12:33:03.205Z,9.60
2023-01-13T12:35:41.650Z,9.70
2023-01-13T12:38:37.293Z,9.70
2023-01-13T12:41:07.034Z,9.70
2023-01-13T12:43:53.217Z,9.70
2023-01-13T12:46:21.128Z,9.80
2023-01-13T12:48:57.138Z,9.80
2023-01-13T12:51:57.925Z,9.80
2023-01-13T12:54:34.120Z,9.80
2023-01-13T12:57:01.293Z,9.80
2023-01-13T12:59:28.033Z,9.80
2023-01-13T13:02:13.372Z,9.80
2023-01-13T13:04:51.193Z,9.90
2023-01-13T13:07:39.424Z,9.80
2023-01-13T13:10:14.404Z,9.80
2023-01-13T13:12:59.984Z,9.70
2023-01-13T13:15:37.058Z,9.60
2023-01-13T13:18:20.417Z,9.70
2023-01-13T13:21:09.081Z,9.70
2023-01-13T13:24:02.959Z,9.60
2023-01-13T13:26:45.721Z,9.70
2023-01-13T13:29:35.570Z,9.70
2023-01-13T13:32:08.324Z,9.60
2023-01-13T13:34:59.834Z,9.60
2023-01-13T13:37:29.936Z,9.60
2023-01-13T13:40:15.849Z,9.60
2023-01-13T13:43:14.917Z,9.60
2023-01-13T13:46:10.714Z,9.60
2023-01-13T13:48:37.720Z,9.60
2023-01-13T13:51:27.036Z,9.70
2023-01-13T13:53:55.858Z,9.70
2023-01-13T13:56:26.566Z,9.70
2023-01-13T13:58:54.423Z,9.70
2023-01-13T14:01:37.515Z,9.70
2023-01-13T14:04:22.039Z,9.70
2023-01-13T14:06:54.549Z,9.70
2023-01-13T14:09:23.449Z,9.70
2023-01-13T14:12:02.584Z,9.70
2023-01-13T14:14:29.677Z,9.60
2023-01-13T14:16:56.986Z,9.60
2023-01-13T14:19:30.186Z,9.70
2023-01-13T14:22:00.777Z,9.70
2023-01-13T14:24:29.765Z,9.70
2023-01-13T14:27:10.887Z,9.70
2023-01-13T14:29:38.109Z,9.70
2023-01-13T14:32:06.855Z,9.80
2023-01-13T14:34:35.369Z,9.80
2023-01-13T14:37:03.668Z,9.80
2023-01-13T14:39:35.137Z,9.80
2023-01-13T14:42:02.372Z,9.80
2023-01-13T14:44:36.504Z,9.80
2023-01-13T14:47:19.689Z,9.80
2023-01-13T14:50:07.534Z,9.70
2023-01-13T14:52:37.769Z,9.70
2023-01-13T14:55:10.442Z,9.70
2023-01-13T14:57:41.699Z,9.60
2023-01-13T15:00:14.320Z,9.70
2023-01-13T15:02:53.603Z,9.60
2023-01-13T15:05:20.600Z,9.60
2023-01-13T15:07:56.079Z,9.70
2023-01-13T15:10:27.624Z,9.60
2023-01-13T15:12:57.052Z,9.60
2023-01-13T15:15:28.170Z,9.60
2023-01-13T15:17:54.976Z,9.60
2023-01-13T15:20:24.037Z,9.60
2023-01-13T15:22:52.278Z,9.60
2023-01-13T15:25:20.404Z,9.50
2023-01-13T15:27:50.985Z,9.60
2023-01-13T15:30:22.400Z,9.60
2023-01-13T15:32:49.316Z,9.50
2023-01-13T15:35:17.260Z,9.50
2023-01-13T15:37:45.696Z,9.50
2023-01-13T15:40:32.800Z,9.50
2023-01-13T15:43:18.373Z,9.50
2023-01-13T15:46:04.904Z,9.40
2023-01-13T15:48:32.963Z,9.40
2023-01-13T15:51:00.919Z,9.40
2023-01-13T15:53:28.926Z,9.30
2023-01-13T15:55:58.248Z,9.40
2023-01-13T15:58:28.499Z,9.30
2023-01-13T16:00:55.749Z,9.30
2023-01-13T16:03:23.003Z,9.30
2023-01-13T16:05:50.062Z,9.30
2023-01-13T16:08:22.077Z,9.40
2023-01-13T16:10:49.875Z,9.30
2023-01-13T16:13:17.762Z,9.40
2023-01-13T16:15:47.982Z,9.40
2023-01-13T16:18:21.108Z,9.30
2023-01-13T16:20:52.746Z,9.30
2023-01-13T16:23:20.001Z,9.30
2023-01-13T16:25:47.611Z,9.20
2023-01-13T16:28:28.037Z,9.20
2023-01-13T16:30:54.969Z,9.30
2023-01-13T16:33:21.868Z,9.20
2023-01-13T16:36:11.730Z,9.20
2023-01-13T16:38:36.925Z,9.20
2023-01-13T16:41:03.712Z,9.10
2023-01-13T16:43:30.569Z,9.10
2023-01-13T16:45:57.465Z,9.30
2023-01-13T16:48:24.380Z,9.10
2023-01-13T16:50:51.166Z,9.10
2023-01-13T16:53:18.220Z,9.10
2023-01-13T16:55:44.995Z,9.10
2023-01-13T16:58:20.662Z,9.10
2023-01-13T17:00:48.052Z,9.10
2023-01-13T17:03:16.189Z,9.10
2023-01-13T17:05:44.829Z,9.10
2023-01-13T17:08:17.782Z,9.00
2023-01-13T17:10:46.073Z,9.00
2023-01-13T17:13:16.361Z,9.00
2023-01-13T17:15:44.301Z,9.00
2023-01-13T17:18:13.196Z,9.00
2023-01-13T17:20:40.604Z,8.90
2023-01-13T17:23:07.372Z,8.90
2023-01-13T17:25:34.340Z,8.90
2023-01-13T17:28:01.130Z,8.90
2023-01-13T17:30:27.955Z,8.80
2023-01-13T17:32:54.800Z,8.80
2023-01-13T17:35:24.724Z,8.80
2023-01-13T17:37:52.626Z,8.70
2023-01-13T17:40:19.859Z,8.90
2023-01-13T17:42:46.700Z,8.70
2023-01-13T17:45:13.500Z,8.70
2023-01-13T17:47:40.360Z,8.70
2023-01-13T17:50:07.589Z,8.60
2023-01-13T17:52:35.088Z,8.70
2023-01-13T17:55:01.922Z,8.60
2023-01-13T17:57:28.877Z,8.60
2023-01-13T17:59:58.206Z,8.60
2023-01-13T18:02:26.246Z,8.60
2023-01-13T18:04:53.186Z,8.50
2023-01-13T18:07:20.164Z,8.50
2023-01-13T18:09:47.014Z,8.50
2023-01-13T18:12:14.552Z,8.50
2023-01-13T18:14:41.584Z,8.60
2023-01-13T18:17:08.496Z,8.40
2023-01-13T18:19:53.680Z,8.40
2023-01-13T18:22:39.078Z,8.60
2023-01-13T18:25:25.161Z,8.40
2023-01-13T18:27:52.118Z,8.30
2023-01-13T18:30:19.218Z,8.30
2023-01-13T18:32:46.185Z,8.30
2023-01-13T18:35:13.048Z,8.40
2023-01-13T18:37:42.209Z,8.50
2023-01-13T18:40:11.876Z,8.60
2023-01-13T18:42:51.561Z,8.60
2023-01-13T18:45:24.612Z,8.60
2023-01-13T18:47:52.902Z,8.50
2023-01-13T18:50:19.843Z,8.60
2023-01-13T18:52:47.079Z,8.50
2023-01-13T18:55:14.120Z,8.30
2023-01-13T18:57:41.087Z,8.30
2023-01-13T19:00:13.381Z,8.20
2023-01-13T19:02:40.697Z,8.20
2023-01-13T19:05:07.900Z,8.10
2023-01-13T19:07:35.972Z,8.10
2023-01-13T19:10:04.700Z,8.10
2023-01-13T19:12:33.591Z,8.00
2023-01-13T19:15:01.513Z,8.00
2023-01-13T19:17:33.460Z,8.00
2023-01-13T19:20:00.682Z,7.90
2023-01-13T19:22:30.770Z,8.10
2023-01-13T19:24:58.064Z,7.90
2023-01-13T19:27:27.372Z,7.80
2023-01-13T19:29:57.501Z,7.80
2023-01-13T19:32:24.887Z,7.80
2023-01-13T19:34:53.186Z,7.80
2023-01-13T19:37:20.323Z,7.70
2023-01-13T19:39:47.231Z,7.90
2023-01-13T19:42:33.211Z,7.70
2023-01-13T19:45:18.800Z,7.80
2023-01-13T19:47:45.986Z,7.60
2023-01-13T19:50:13.931Z,7.70
2023-01-13T19:52:44.674Z,7.60
2023-01-13T19:55:12.418Z,7.60
2023-01-13T19:57:40.440Z,7.80
2023-01-13T20:00:09.502Z,7.80
2023-01-13T20:02:49.037Z,7.60
2023-01-13T20:05:21.079Z,7.60
2023-01-13T20:07:49.345Z,7.60
2023-01-13T20:10:17.666Z,7.70
2023-01-13T20:12:44.554Z,7.70
2023-01-13T20:15:11.678Z,7.80
2023-01-13T20:17:38.640Z,7.80
2023-01-13T20:20:05.743Z,7.70
2023-01-13T20:22:32.690Z,7.70
2023-01-13T20:24:59.455Z,7.80
2023-01-13T20:27:26.468Z,7.80
2023-01-13T20:29:54.335Z,7.70
2023-01-13T20:32:21.236Z,7.70
2023-01-13T20:34:48.051Z,7.70
2023-01-13T20:37:15.070Z,7.70
2023-01-13T20:39:46.165Z,7.70
2023-01-13T20:42:32.320Z,7.70
2023-01-13T20:45:00.509Z,7.70
2023-01-13T20:47:29.517Z,8.00
2023-01-13T20:49:56.649Z,7.80
2023-01-13T20:52:23.922Z,7.80
2023-01-13T20:54:50.976Z,7.70
2023-01-13T20:57:17.869Z,8.20
2023-01-13T20:59:44.741Z,7.80
2023-01-13T21:02:13.580Z,7.80
2023-01-13T21:04:40.782Z,7.80
2023-01-13T21:07:07.739Z,7.80
2023-01-13T21:09:34.694Z,7.80
2023-01-13T21:12:20.190Z,7.80
2023-01-13T21:15:05.600Z,7.90
2023-01-13T21:17:51.014Z,7.90
2023-01-13T21:20:17.961Z,7.80
2023-01-13T21:22:48.916Z,7.80
2023-01-13T21:25:18.071Z,7.90
2023-01-13T21:27:45.026Z,7.90
2023-01-13T21:30:15.782Z,7.80
2023-01-13T21:32:44.405Z,7.80
2023-01-13T21:35:12.961Z,7.80
2023-01-13T21:37:41.380Z,7.80
2023-01-13T21:40:12.905Z,7.80
2023-01-13T21:42:59.005Z,7.80
2023-01-13T21:45:44.663Z,7.70
2023-01-13T21:48:11.642Z,7.90
2023-01-13T21:50:38.932Z,7.80
2023-01-13T21:53:08.314Z,7.70
2023-01-13T21:55:36.678Z,7.70
2023-01-13T21:58:15.666Z,7.80
2023-01-13T22:00:44.152Z,7.80
2023-01-13T22:03:12.701Z,7.80
2023-01-13T22:05:40.115Z,7.80
2023-01-13T22:08:07.395Z,7.70
2023-01-13T22:10:34.435Z,7.80
2023-01-13T22:13:22.843Z,7.80
2023-01-13T22:15:49.873Z,7.90
2023-01-13T22:18:18.230Z,8.00
2023-01-13T22:20:45.668Z,7.80
2023-01-13T22:23:12.812Z,7.80
2023-01-13T22:25:39.753Z,7.80
2023-01-13T22:28:09.272Z,7.80
2023-01-13T22:30:36.740Z,7.80
2023-01-13T22:33:04.058Z,7.80
2023-01-13T22:35:31.249Z,7.80
2023-01-13T22:37:58.413Z,7.80
2023-01-13T22:40:25.403Z,7.80
2023-01-13T22:42:52.283Z,7.80
2023-01-13T22:45:19.205Z,8.00
2023-01-13T22:47:46.146Z,7.80
2023-01-13T22:50:13.119Z,7.80
2023-01-13T22:52:40.015Z,7.80
2023-01-13T22:55:07.551Z,7.90
2023-01-13T22:57:46.699Z,7.80
2023-01-13T23:00:14.986Z,7.80
2023-01-13T23:02:42.097Z,7.80
2023-01-13T23:05:09.247Z,7.80
2023-01-13T23:07:36.262Z,7.80
2023-01-13T23:10:05.132Z,7.80
2023-01-13T23:12:32.211Z,7.80
2023-01-13T23:14:59.195Z,7.70
2023-01-13T23:17:26.070Z,7.70
2023-01-13T23:19:53.133Z,7.80
2023-01-13T23:22:20.058Z,7.90
2023-01-13T23:24:47.029Z,7.80
2023-01-13T23:27:13.924Z,7.80
2023-01-13T23:29:40.866Z,7.80
2023-01-13T23:32:07.824Z,7.80
2023-01-13T23:34:34.790Z,7.90
2023-01-13T23:37:01.655Z,7.90
2023-01-13T23:39:28.586Z,7.80
2023-01-13T23:41:55.713Z,7.90
2023-01-13T23:44:22.844Z,7.90
2023-01-13T23:46:49.759Z,8.10
2023-01-13T23:49:16.706Z,8.00
2023-01-13T23:51:43.592Z,8.00
2023-01-13T23:54:10.555Z,8.00
2023-01-13T23:56:39.573Z,8.00
2023-01-13T23:59:07.077Z,8.20
